createdAt,value
2023-01-30T00:01:13.034Z,5.62
2023-01-30T00:03:39.582Z,5.49
2023-01-30T00:06:06.275Z,5.13
2023-01-30T00:08:32.847Z,5.83
2023-01-30T00:11:07.622Z,5.64
2023-01-30T00:13:34.567Z,5.49
2023-01-30T00:16:01.546Z,5.76
2023-01-30T00:18:28.845Z,5.75
2023-01-30T00:20:59.644Z,5.46
2023-01-30T00:23:27.951Z,5.48
2023-01-30T00:25:55.108Z,5.34
2023-01-30T00:28:22.367Z,5.56
2023-01-30T00:30:52.986Z,5.97
2023-01-30T00:33:21.097Z,5.49
2023-01-30T00:35:49.521Z,6.04
2023-01-30T00:38:16.622Z,5.75
2023-01-30T00:40:44.197Z,6.01
2023-01-30T00:43:32.592Z,5.60
2023-01-30T00:46:20.238Z,6.19
2023-01-30T00:48:46.718Z,6.25
2023-01-30T00:51:13.390Z,6.09
2023-01-30T00:53:39.983Z,6.26
2023-01-30T00:56:07.024Z,5.80
2023-01-30T00:58:33.865Z,6.34
2023-01-30T01:01:00.475Z,6.25
2023-01-30T01:03:27.079Z,5.80
2023-01-30T01:05:53.635Z,5.99
2023-01-30T01:08:22.530Z,6.39
2023-01-30T01:10:49.257Z,6.35
2023-01-30T01:13:15.875Z,6.01
2023-01-30T01:15:42.427Z,6.74
2023-01-30T01:18:09.141Z,6.42
2023-01-30T01:20:35.680Z,6.72
2023-01-30T01:23:02.957Z,6.72
2023-01-30T01:25:29.635Z,6.15
2023-01-30T01:27:56.402Z,6.75
2023-01-30T01:30:24.028Z,6.10
2023-01-30T01:32:50.581Z,6.13
2023-01-30T01:35:17.518Z,6.64
2023-01-30T01:37:44.362Z,6.31
2023-01-30T01:40:36.588Z,6.80
2023-01-30T01:43:19.293Z,6.21
2023-01-30T01:45:49.674Z,6.73
2023-01-30T01:48:26.260Z,6.16
2023-01-30T01:51:16.608Z,6.32
2023-01-30T01:53:58.218Z,6.31
2023-01-30T01:56:25.753Z,6.74
2023-01-30T01:59:01.549Z,6.35
2023-01-30T02:01:29.637Z,6.28
2023-01-30T02:04:01.910Z,6.16
2023-01-30T02:06:30.121Z,6.26
2023-01-30T02:09:04.749Z,6.34
2023-01-30T02:11:42.306Z,6.81
2023-01-30T02:14:11.171Z,6.55
2023-01-30T02:16:38.249Z,6.27
2023-01-30T02:19:23.996Z,6.57
2023-01-30T02:22:19.932Z,6.75
2023-01-30T02:25:24.233Z,6.76
2023-01-30T02:28:17.534Z,6.20
2023-01-30T02:31:06.021Z,6.73
2023-01-30T02:33:48.690Z,6.14
2023-01-30T02:36:29.013Z,6.75
2023-01-30T02:39:14.482Z,6.26
2023-01-30T02:41:56.015Z,6.23
2023-01-30T02:44:48.909Z,6.76
2023-01-30T02:47:23.806Z,6.75
2023-01-30T02:49:58.400Z,6.57
2023-01-30T02:52:26.875Z,6.29
2023-01-30T02:54:53.817Z,6.25
2023-01-30T02:57:23.173Z,6.52
2023-01-30T02:59:57.472Z,6.65
2023-01-30T03:02:46.370Z,6.75
2023-01-30T03:05:16.608Z,6.74
2023-01-30T03:08:03.944Z,6.77
2023-01-30T03:10:40.745Z,6.67
2023-01-30T03:13:17.404Z,6.79
2023-01-30T03:15:57.307Z,6.28
2023-01-30T03:18:24.193Z,6.24
2023-01-30T03:20:52.247Z,5.80
2023-01-30T03:23:18.817Z,6.66
2023-01-30T03:25:47.538Z,6.66
2023-01-30T03:28:18.268Z,6.75
2023-01-30T03:30:44.923Z,6.62
2023-01-30T03:33:11.549Z,6.68
2023-01-30T03:35:40.621Z,6.10
2023-01-30T03:38:07.255Z,6.70
2023-01-30T03:40:34.939Z,6.67
2023-01-30T03:43:01.879Z,6.28
2023-01-30T03:45:28.500Z,6.25
2023-01-30T03:47:55.201Z,6.71
2023-01-30T03:50:21.765Z,6.71
2023-01-30T03:52:48.320Z,6.74
2023-01-30T03:55:18.620Z,6.34
2023-01-30T03:57:45.480Z,6.92
2023-01-30T04:00:12.735Z,6.64
2023-01-30T04:02:48.143Z,6.90
2023-01-30T04:05:18.395Z,6.30
2023-01-30T04:07:51.358Z,7.04
2023-01-30T04:10:19.975Z,6.95
2023-01-30T04:12:47.311Z,6.55
2023-01-30T04:15:13.953Z,6.58
2023-01-30T04:17:59.274Z,6.69
2023-01-30T04:20:45.489Z,6.91
2023-01-30T04:23:12.815Z,6.95
2023-01-30T04:25:40.082Z,6.57
2023-01-30T04:28:09.139Z,6.65
2023-01-30T04:30:37.800Z,7.03
2023-01-30T04:33:27.093Z,6.71
2023-01-30T04:35:55.096Z,7.28
2023-01-30T04:38:22.720Z,7.31
2023-01-30T04:40:50.492Z,6.85
2023-01-30T04:43:18.665Z,7.34
2023-01-30T04:46:04.677Z,7.24
2023-01-30T04:48:31.335Z,7.43
2023-01-30T04:51:00.723Z,6.99
2023-01-30T04:53:27.676Z,6.94
2023-01-30T04:55:54.425Z,7.39
2023-01-30T04:58:21.347Z,7.61
2023-01-30T05:00:48.244Z,7.02
2023-01-30T05:03:15.760Z,7.59
2023-01-30T05:05:42.358Z,7.66
2023-01-30T05:08:09.460Z,7.74
2023-01-30T05:10:36.045Z,7.08
2023-01-30T05:13:06.389Z,7.59
2023-01-30T05:15:33.614Z,7.29
2023-01-30T05:18:00.968Z,7.70
2023-01-30T05:20:27.632Z,7.57
2023-01-30T05:22:54.308Z,7.71
2023-01-30T05:25:21.400Z,7.68
2023-01-30T05:27:47.972Z,7.23
2023-01-30T05:30:14.699Z,7.72
2023-01-30T05:32:41.243Z,7.73
2023-01-30T05:35:08.418Z,7.32
2023-01-30T05:37:34.987Z,7.72
2023-01-30T05:40:01.568Z,7.83
2023-01-30T05:42:28.079Z,7.70
2023-01-30T05:44:54.701Z,7.80
2023-01-30T05:47:21.277Z,7.31
2023-01-30T05:49:47.771Z,7.25
2023-01-30T05:52:14.319Z,7.62
2023-01-30T05:54:40.916Z,7.53
2023-01-30T05:57:07.541Z,7.62
2023-01-30T05:59:34.132Z,7.65
2023-01-30T06:02:00.641Z,7.21
2023-01-30T06:04:27.208Z,7.76
2023-01-30T06:06:53.673Z,7.91
2023-01-30T06:09:20.232Z,6.96
2023-01-30T06:11:46.807Z,7.66
2023-01-30T06:14:13.424Z,7.82
2023-01-30T06:16:40.026Z,7.69
2023-01-30T06:19:07.669Z,7.68
2023-01-30T06:21:34.239Z,7.50
2023-01-30T06:24:00.849Z,7.64
2023-01-30T06:26:27.405Z,7.54
2023-01-30T06:28:53.919Z,7.32
2023-01-30T06:31:20.485Z,7.53
2023-01-30T06:33:48.904Z,7.58
2023-01-30T06:36:15.631Z,7.02
2023-01-30T06:38:42.116Z,7.45
2023-01-30T06:41:08.658Z,7.55
2023-01-30T06:43:35.158Z,7.51
2023-01-30T06:46:01.726Z,7.18
2023-01-30T06:48:28.330Z,7.51
2023-01-30T06:50:54.836Z,7.13
2023-01-30T06:53:22.436Z,7.29
2023-01-30T06:55:48.977Z,7.20
2023-01-30T06:58:15.715Z,7.07
2023-01-30T07:00:43.103Z,7.03
2023-01-30T07:03:15.565Z,6.98
2023-01-30T07:05:43.708Z,6.97
2023-01-30T07:08:11.211Z,6.91
2023-01-30T07:10:38.485Z,6.81
2023-01-30T07:13:05.078Z,6.78
2023-01-30T07:15:32.338Z,6.79
2023-01-30T07:17:59.611Z,5.48
2023-01-30T07:20:26.447Z,6.69
2023-01-30T07:22:54.334Z,6.83
2023-01-30T07:25:22.496Z,6.38
2023-01-30T07:27:54.126Z,6.91
2023-01-30T07:30:20.954Z,7.04
2023-01-30T07:32:52.603Z,7.01
2023-01-30T07:35:19.617Z,6.97
2023-01-30T07:37:47.934Z,6.64
2023-01-30T07:40:15.383Z,6.73
2023-01-30T07:42:41.914Z,6.81
2023-01-30T07:45:09.071Z,6.33
2023-01-30T07:47:35.640Z,6.58
2023-01-30T07:50:02.415Z,6.46
2023-01-30T07:52:28.931Z,6.03
2023-01-30T07:54:55.448Z,5.96
2023-01-30T07:57:22.081Z,6.45
2023-01-30T07:59:48.616Z,5.91
2023-01-30T08:02:15.127Z,6.40
2023-01-30T08:04:41.812Z,6.12
2023-01-30T08:07:10.005Z,6.75
2023-01-30T08:09:36.478Z,6.32
2023-01-30T08:12:03.030Z,6.60
2023-01-30T08:14:29.641Z,7.26
2023-01-30T08:16:57.797Z,7.41
2023-01-30T08:19:24.316Z,7.44
2023-01-30T08:21:50.850Z,7.40
2023-01-30T08:24:17.310Z,7.58
2023-01-30T08:26:44.015Z,7.35
2023-01-30T08:29:10.551Z,7.78
2023-01-30T08:31:37.149Z,7.24
2023-01-30T08:34:03.646Z,7.21
2023-01-30T08:36:30.173Z,7.38
2023-01-30T08:38:56.702Z,7.90
2023-01-30T08:41:23.162Z,7.83
2023-01-30T08:43:49.661Z,7.76
2023-01-30T08:46:17.390Z,7.66
2023-01-30T08:48:49.982Z,6.81
2023-01-30T08:51:16.840Z,7.91
2023-01-30T08:53:43.375Z,8.04
2023-01-30T08:56:09.916Z,8.22
2023-01-30T08:58:36.836Z,8.28
2023-01-30T09:01:07.090Z,7.98
2023-01-30T09:03:33.863Z,8.50
2023-01-30T09:06:00.448Z,8.59
2023-01-30T09:08:26.974Z,8.14
2023-01-30T09:10:57.925Z,8.83
2023-01-30T09:13:24.468Z,8.96
2023-01-30T09:15:51.012Z,9.17
2023-01-30T09:18:17.540Z,9.27
2023-01-30T09:20:44.069Z,9.62
2023-01-30T09:23:10.554Z,9.42
2023-01-30T09:25:37.670Z,8.51
2023-01-30T09:28:04.307Z,8.89
2023-01-30T09:30:30.897Z,8.18
2023-01-30T09:32:57.486Z,8.74
2023-01-30T09:35:23.953Z,8.61
2023-01-30T09:37:52.896Z,8.23
2023-01-30T09:40:27.129Z,8.59
2023-01-30T09:43:00.199Z,8.61
2023-01-30T09:45:53.403Z,8.65
2023-01-30T09:48:27.055Z,8.50
2023-01-30T09:51:08.859Z,8.53
2023-01-30T09:53:56.895Z,8.52
2023-01-30T09:56:24.101Z,8.37
2023-01-30T09:59:04.250Z,7.82
2023-01-30T10:01:36.690Z,7.90
2023-01-30T10:04:25.099Z,8.35
2023-01-30T10:07:05.762Z,8.44
2023-01-30T10:09:40.335Z,7.79
2023-01-30T10:12:42.874Z,8.72
2023-01-30T10:15:38.174Z,8.66
2023-01-30T10:18:36.108Z,8.89
2023-01-30T10:21:17.491Z,9.25
2023-01-30T10:24:04.452Z,9.60
2023-01-30T10:26:31.959Z,9.48
2023-01-30T10:29:06.558Z,9.47
2023-01-30T10:32:03.393Z,9.39
2023-01-30T10:34:36.627Z,9.48
2023-01-30T10:37:11.226Z,8.74
2023-01-30T10:39:55.189Z,9.56
2023-01-30T10:42:43.564Z,9.67
2023-01-30T10:45:15.034Z,9.39
2023-01-30T10:47:51.873Z,9.04
2023-01-30T10:50:26.976Z,9.32
2023-01-30T10:52:59.695Z,9.58
2023-01-30T10:55:38.071Z,9.42
2023-01-30T10:58:32.508Z,9.32
2023-01-30T11:01:12.155Z,9.09
2023-01-30T11:03:56.276Z,8.36
2023-01-30T11:06:25.346Z,9.01
2023-01-30T11:08:53.884Z,9.02
2023-01-30T11:11:35.736Z,9.48
2023-01-30T11:14:02.310Z,9.63
2023-01-30T11:16:29.261Z,9.31
2023-01-30T11:21:55.001Z,9.49
2023-01-30T11:24:31.123Z,9.34
2023-01-30T11:27:19.277Z,9.27
2023-01-30T11:29:46.426Z,8.68
2023-01-30T11:32:19.832Z,8.93
2023-01-30T11:35:03.757Z,9.41
2023-01-30T11:37:33.004Z,9.64
2023-01-30T11:39:59.564Z,10.19
2023-01-30T11:42:31.362Z,10.61
2023-01-30T11:45:16.270Z,10.28
2023-01-30T11:47:57.645Z,10.91
2023-01-30T11:50:36.420Z,10.64
2023-01-30T11:53:20.679Z,10.81
2023-01-30T11:56:02.310Z,10.66
2023-01-30T11:58:34.367Z,10.94
2023-01-30T12:01:02.193Z,11.06
2023-01-30T12:03:30.314Z,11.91
2023-01-30T12:05:58.901Z,11.49
2023-01-30T12:08:43.829Z,11.08
2023-01-30T12:11:46.025Z,10.41
2023-01-30T12:14:27.516Z,10.05
2023-01-30T12:17:12.901Z,9.92
2023-01-30T12:20:03.841Z,9.13
2023-01-30T12:22:30.341Z,9.93
2023-01-30T12:25:03.719Z,10.12
2023-01-30T12:28:01.880Z,9.90
2023-01-30T12:30:47.184Z,10.32
2023-01-30T12:35:57.175Z,10.37
2023-01-30T12:38:45.931Z,9.80
2023-01-30T12:41:20.679Z,10.28
2023-01-30T12:44:18.392Z,10.18
2023-01-30T12:46:58.425Z,9.81
2023-01-30T12:49:31.883Z,9.40
2023-01-30T12:52:07.232Z,10.02
2023-01-30T12:54:42.695Z,9.77
2023-01-30T12:57:24.702Z,9.69
2023-01-30T13:00:00.429Z,9.98
2023-01-30T13:02:52.784Z,10.11
2023-01-30T13:05:22.391Z,9.90
2023-01-30T13:07:57.208Z,10.17
2023-01-30T13:10:51.877Z,10.64
2023-01-30T13:13:52.399Z,10.37
2023-01-30T13:16:50.333Z,10.62
2023-01-30T13:19:25.499Z,9.76
2023-01-30T13:22:13.217Z,9.53
2023-01-30T13:24:46.788Z,9.99
2023-01-30T13:27:19.101Z,10.49
2023-01-30T13:29:47.907Z,10.15
2023-01-30T13:32:37.909Z,10.25
2023-01-30T13:35:09.725Z,9.92
2023-01-30T13:37:38.083Z,10.06
2023-01-30T13:40:17.490Z,9.54
2023-01-30T13:42:59.548Z,9.05
2023-01-30T13:45:32.324Z,9.37
2023-01-30T13:48:34.822Z,9.29
2023-01-30T13:51:26.371Z,8.69
2023-01-30T13:54:30.707Z,9.12
2023-01-30T13:57:08.301Z,8.57
2023-01-30T13:59:46.971Z,9.04
2023-01-30T14:02:19.536Z,8.52
2023-01-30T14:04:47.021Z,8.96
2023-01-30T14:07:49.061Z,8.95
2023-01-30T14:10:20.506Z,8.97
2023-01-30T14:12:50.350Z,9.04
2023-01-30T14:15:18.690Z,9.05
2023-01-30T14:17:57.455Z,9.03
2023-01-30T14:20:27.187Z,8.88
2023-01-30T14:22:59.082Z,8.80
2023-01-30T14:25:25.641Z,9.01
2023-01-30T14:27:55.289Z,8.75
2023-01-30T14:30:49.354Z,8.96
2023-01-30T14:33:21.803Z,8.94
2023-01-30T14:35:58.250Z,8.46
2023-01-30T14:38:31.854Z,9.17
2023-01-30T14:40:58.453Z,9.25
2023-01-30T14:43:43.237Z,9.29
2023-01-30T14:46:18.932Z,9.70
2023-01-30T14:48:50.034Z,9.69
2023-01-30T14:51:28.768Z,9.61
2023-01-30T14:54:16.782Z,9.88
2023-01-30T14:57:01.160Z,9.66
2023-01-30T14:59:33.523Z,9.45
2023-01-30T15:02:14.679Z,8.77
2023-01-30T15:04:56.590Z,9.35
2023-01-30T15:07:51.630Z,9.34
2023-01-30T15:10:40.867Z,8.45
2023-01-30T15:13:26.126Z,9.21
2023-01-30T15:16:17.433Z,9.14
2023-01-30T15:19:06.087Z,9.05
2023-01-30T15:21:40.533Z,8.95
2023-01-30T15:24:30.845Z,8.17
2023-01-30T15:27:30.816Z,8.69
2023-01-30T15:30:17.222Z,8.09
2023-01-30T15:32:44.656Z,8.56
2023-01-30T15:35:11.089Z,8.52
2023-01-30T15:37:51.316Z,8.33
2023-01-30T15:40:19.576Z,8.55
2023-01-30T15:43:01.068Z,8.41
2023-01-30T15:45:48.799Z,8.45
2023-01-30T15:48:25.738Z,8.35
2023-01-30T15:50:56.133Z,8.30
2023-01-30T15:53:28.805Z,7.78
2023-01-30T15:55:55.645Z,8.27
2023-01-30T15:58:23.965Z,8.26
2023-01-30T16:01:00.044Z,7.82
2023-01-30T16:03:41.388Z,8.23
2023-01-30T16:06:22.384Z,7.79
2023-01-30T16:09:14.714Z,8.20
2023-01-30T16:11:43.231Z,7.71
2023-01-30T16:14:15.049Z,8.08
2023-01-30T16:16:57.642Z,8.22
2023-01-30T16:19:30.983Z,7.55
2023-01-30T16:22:05.265Z,8.08
2023-01-30T16:24:35.661Z,7.63
2023-01-30T16:27:06.429Z,7.56
2023-01-30T16:29:44.862Z,7.61
2023-01-30T16:32:14.988Z,7.59
2023-01-30T16:34:41.540Z,8.02
2023-01-30T16:37:20.165Z,8.07
2023-01-30T16:40:13.599Z,7.80
2023-01-30T16:42:40.912Z,7.88
2023-01-30T16:45:43.118Z,7.46
2023-01-30T16:48:23.531Z,7.95
2023-01-30T16:50:59.647Z,7.90
2023-01-30T16:53:30.585Z,7.75
2023-01-30T16:56:07.469Z,7.61
2023-01-30T16:58:36.597Z,7.07
2023-01-30T17:01:06.657Z,6.76
2023-01-30T17:03:36.947Z,6.93
2023-01-30T17:06:12.424Z,7.50
2023-01-30T17:08:58.089Z,7.15
2023-01-30T17:11:32.272Z,7.54
2023-01-30T17:14:22.703Z,7.57
2023-01-30T17:17:07.539Z,7.47
2023-01-30T17:19:36.081Z,7.43
2023-01-30T17:22:06.537Z,7.46
2023-01-30T17:24:35.852Z,7.34
2023-01-30T17:27:04.408Z,7.27
2023-01-30T17:29:42.390Z,7.02
2023-01-30T17:32:12.178Z,6.31
2023-01-30T17:34:41.019Z,6.72
2023-01-30T17:37:21.254Z,6.35
2023-01-30T17:39:48.645Z,6.14
2023-01-30T17:42:18.546Z,6.19
2023-01-30T17:44:45.129Z,5.93
2023-01-30T17:47:12.508Z,6.31
2023-01-30T17:49:40.106Z,5.94
2023-01-30T17:52:07.010Z,6.23
2023-01-30T17:54:33.626Z,6.10
2023-01-30T17:57:03.028Z,5.61
2023-01-30T17:59:30.333Z,6.07
2023-01-30T18:01:56.970Z,5.36
2023-01-30T18:04:23.916Z,5.94
2023-01-30T18:06:54.220Z,5.72
2023-01-30T18:09:24.274Z,5.81
2023-01-30T18:11:51.359Z,5.85
2023-01-30T18:14:18.475Z,5.86
2023-01-30T18:16:45.628Z,5.81
2023-01-30T18:19:14.959Z,5.71
2023-01-30T18:21:45.073Z,5.49
2023-01-30T18:24:14.835Z,5.41
2023-01-30T18:26:42.567Z,5.53
2023-01-30T18:29:09.870Z,4.49
2023-01-30T18:31:38.049Z,5.52
2023-01-30T18:34:05.058Z,5.24
2023-01-30T18:36:34.004Z,5.44
2023-01-30T18:39:01.205Z,5.34
2023-01-30T18:41:29.183Z,5.23
2023-01-30T18:43:58.347Z,4.72
2023-01-30T18:46:25.939Z,5.25
2023-01-30T18:48:52.673Z,5.02
2023-01-30T18:51:24.752Z,5.16
2023-01-30T18:53:52.773Z,4.89
2023-01-30T18:56:29.355Z,5.03
2023-01-30T18:58:56.814Z,5.09
2023-01-30T19:01:27.219Z,4.76
2023-01-30T19:03:56.322Z,4.44
2023-01-30T19:06:23.624Z,4.83
2023-01-30T19:08:51.342Z,4.91
2023-01-30T19:11:39.697Z,5.03
2023-01-30T19:14:10.001Z,4.72
2023-01-30T19:16:38.746Z,4.45
2023-01-30T19:19:06.716Z,4.71
2023-01-30T19:21:34.323Z,4.55
2023-01-30T19:24:06.690Z,4.67
2023-01-30T19:26:34.013Z,4.33
2023-01-30T19:29:00.657Z,4.13
2023-01-30T19:31:27.432Z,4.76
2023-01-30T19:33:59.167Z,4.88
2023-01-30T19:36:27.471Z,4.10
2023-01-30T19:38:54.756Z,4.78
2023-01-30T19:41:27.037Z,4.36
2023-01-30T19:43:55.286Z,4.72
2023-01-30T19:46:22.549Z,4.84
2023-01-30T19:48:50.365Z,4.85
2023-01-30T19:51:21.621Z,4.94
2023-01-30T19:53:59.579Z,3.60
2023-01-30T19:56:27.973Z,4.34
2023-01-30T19:58:57.172Z,4.73
2023-01-30T20:01:27.411Z,4.70
2023-01-30T20:03:54.435Z,4.38
2023-01-30T20:06:22.995Z,4.76
2023-01-30T20:08:55.027Z,4.73
2023-01-30T20:11:22.096Z,4.35
2023-01-30T20:13:49.466Z,4.55
2023-01-30T20:16:20.593Z,4.39
2023-01-30T20:18:58.872Z,3.99
2023-01-30T20:21:27.247Z,4.33
2023-01-30T20:23:54.886Z,4.55
2023-01-30T20:26:24.292Z,4.60
2023-01-30T20:28:51.328Z,4.52
2023-01-30T20:31:23.072Z,4.11
2023-01-30T20:33:49.686Z,3.96
2023-01-30T20:36:19.167Z,4.62
2023-01-30T20:38:47.614Z,3.92
2023-01-30T20:41:16.782Z,3.93
2023-01-30T20:43:49.198Z,4.57
2023-01-30T20:46:27.519Z,4.55
2023-01-30T20:48:58.159Z,4.51
2023-01-30T20:51:27.328Z,4.33
2023-01-30T20:53:58.533Z,4.19
2023-01-30T20:56:27.385Z,4.04
2023-01-30T20:58:54.013Z,4.22
2023-01-30T21:01:23.260Z,3.74
2023-01-30T21:03:52.194Z,4.13
2023-01-30T21:06:42.531Z,4.31
2023-01-30T21:09:29.661Z,4.12
2023-01-30T21:11:56.324Z,4.01
2023-01-30T21:14:24.574Z,4.33
2023-01-30T21:16:52.908Z,3.66
2023-01-30T21:19:19.860Z,3.69
2023-01-30T21:21:53.335Z,4.32
2023-01-30T21:24:23.671Z,3.68
2023-01-30T21:26:50.826Z,4.27
2023-01-30T21:29:21.185Z,3.70
2023-01-30T21:31:47.902Z,4.25
2023-01-30T21:34:14.691Z,4.09
2023-01-30T21:36:41.559Z,3.73
2023-01-30T21:39:31.338Z,4.32
2023-01-30T21:42:16.604Z,3.85
2023-01-30T21:44:43.195Z,4.32
2023-01-30T21:47:09.735Z,4.15
2023-01-30T21:49:37.023Z,4.40
2023-01-30T21:52:04.021Z,4.34
2023-01-30T21:54:30.684Z,4.17
2023-01-30T21:56:57.227Z,4.29
2023-01-30T21:59:23.755Z,4.46
2023-01-30T22:01:50.909Z,3.86
2023-01-30T22:04:17.832Z,4.01
2023-01-30T22:06:44.581Z,4.65
2023-01-30T22:09:13.513Z,4.07
2023-01-30T22:11:40.024Z,4.13
2023-01-30T22:14:06.723Z,4.55
2023-01-30T22:16:33.814Z,4.54
2023-01-30T22:19:03.045Z,4.40
2023-01-30T22:21:33.191Z,4.62
2023-01-30T22:24:01.741Z,4.69
2023-01-30T22:26:28.448Z,4.01
2023-01-30T22:28:56.669Z,3.85
2023-01-30T22:31:24.900Z,3.85
2023-01-30T22:33:54.078Z,4.16
2023-01-30T22:36:23.889Z,3.90
2023-01-30T22:38:50.833Z,4.33
2023-01-30T22:41:19.983Z,3.91
2023-01-30T22:43:52.725Z,4.38
2023-01-30T22:46:19.952Z,3.87
2023-01-30T22:48:46.918Z,4.36
2023-01-30T22:51:15.125Z,4.63
2023-01-30T22:53:44.581Z,4.65
2023-01-30T22:56:19.875Z,4.15
2023-01-30T22:58:47.280Z,4.53
2023-01-30T23:01:21.251Z,4.52
2023-01-30T23:03:52.661Z,4.25
2023-01-30T23:06:19.602Z,3.99
2023-01-30T23:08:48.185Z,4.02
2023-01-30T23:11:22.890Z,4.19
2023-01-30T23:13:51.951Z,3.50
2023-01-30T23:16:21.774Z,3.70
2023-01-30T23:18:55.286Z,3.31
2023-01-30T23:21:31.728Z,3.76
2023-01-30T23:24:00.940Z,3.64
2023-01-30T23:26:30.709Z,3.10
2023-01-30T23:28:58.132Z,2.98
2023-01-30T23:31:26.519Z,2.76
2023-01-30T23:34:05.337Z,2.83
2023-01-30T23:36:33.069Z,3.31
2023-01-30T23:39:00.927Z,2.63
2023-01-30T23:41:30.553Z,3.23
2023-01-30T23:43:58.556Z,3.27
2023-01-30T23:46:30.967Z,2.50
2023-01-30T23:49:00.859Z,2.58
2023-01-30T23:51:29.563Z,2.72
2023-01-30T23:53:56.707Z,2.95
2023-01-30T23:56:25.691Z,2.84
2023-01-30T23:58:52.283Z,2.77
